Location Sebastian, FL, US

ob KFLSEBAS1 240510Z AUTO 12000KT SCT021 22/20 A2978 RMK SLPNO 

2017.04.24 0510 UTC
Wind from the SE (123 degrees) at Calm MPH ( KT) gusting to 0.0 MPH (0 KT)
Visibility    Mile(s)
Sky Conditions  partly cloudy
Temperature 72.00 F (22 C)
Dew Point 67.59 F (20 C)
Relative Humidity 86%
Pressure   29.78 in. Hg (1008 hPa)
Rain  0.00 in.
Daily Rain  in.

Station Name  www.kflsebas1.com
Longitude, Latitude  -80.48, 27.8
Elevation 23
Station URL www.kflsebas1.com
Software Type VWS V15.00